Time;durP1;ratioP1;P1;durP2;ratioP2;P2;SDS_P1;SDS_P2;PMS_P1;PMS_P2;Temp;Humidity;BMP_temperature;BMP_pressure;BME280_temperature;BME280_humidity;BME280_pressure;Samples;Min_cycle;Max_cycle;Signal;HPM_P1;HPM_P2
2022/03/23 00:03:00;;;;;;;128.68;55.67;;;;;;;0.10;100.00;101373.50;5056845;28;20098;-89
2022/03/23 00:05:44;;;;;;;128.13;54.97;;;;;;;0.05;100.00;101368.97;5042257;28;20380;-89
2022/03/23 00:08:29;;;;;;;139.30;57.60;;;;;;;-0.04;100.00;101362.59;5042349;28;20380;-89
2022/03/23 00:11:13;;;;;;;126.35;54.22;;;;;;;-0.07;100.00;101361.59;5042249;28;20068;-89
2022/03/23 00:13:57;;;;;;;135.35;56.83;;;;;;;-0.04;100.00;101360.00;5042172;28;20048;-89
2022/03/23 00:16:41;;;;;;;141.95;58.20;;;;;;;-0.10;100.00;101362.38;5055442;28;20512;-89
2022/03/23 00:19:26;;;;;;;139.48;56.55;;;;;;;-0.12;100.00;101363.09;5042081;28;20063;-89
2022/03/23 00:22:11;;;;;;;133.52;53.75;;;;;;;-0.11;100.00;101362.28;5056058;28;20116;-89
2022/03/23 00:24:56;;;;;;;144.75;61.92;;;;;;;-0.19;100.00;101351.66;5041931;28;20048;-88
2022/03/23 00:27:40;;;;;;;129.18;55.47;;;;;;;-0.17;100.00;101360.31;5022144;28;20038;-89
2022/03/23 00:30:26;;;;;;;131.25;54.00;;;;;;;-0.20;100.00;101355.03;5022204;28;20041;-89
2022/03/23 00:33:10;;;;;;;128.65;54.97;;;;;;;-0.19;100.00;101345.63;5022025;28;20412;-89
2022/03/23 00:35:58;;;;;;;120.95;52.45;;;;;;;-0.23;100.00;101347.16;5036790;28;20323;-89
2022/03/23 00:38:43;;;;;;;120.38;50.47;;;;;;;-0.25;100.00;101343.66;5021752;28;20061;-89
2022/03/23 00:41:30;;;;;;;118.45;49.13;;;;;;;-0.28;100.00;101338.38;5035701;28;20046;-89
2022/03/23 00:44:14;;;;;;;132.20;52.22;;;;;;;-0.30;100.00;101345.16;5021827;28;20144;-89
2022/03/23 00:47:00;;;;;;;119.32;51.15;;;;;;;-0.45;100.00;101335.09;5035603;28;20067;-88
2022/03/23 00:49:45;;;;;;;118.20;51.75;;;;;;;-0.44;100.00;101330.81;5035587;28;20065;-89
2022/03/23 00:52:30;;;;;;;118.22;49.85;;;;;;;-0.45;100.00;101336.78;5035695;28;20095;-89
2022/03/23 00:55:15;;;;;;;112.88;49.63;;;;;;;-0.47;100.00;101332.44;5035600;28;20116;-88
2022/03/23 00:58:00;;;;;;;127.50;52.80;;;;;;;-0.51;100.00;101335.69;5035508;28;20042;-88
2022/03/23 01:00:45;;;;;;;120.90;53.03;;;;;;;-0.44;100.00;101336.84;5035522;28;20075;-88
2022/03/23 01:03:30;;;;;;;113.13;51.13;;;;;;;-0.45;100.00;101329.94;5036091;28;20048;-88
2022/03/23 01:06:15;;;;;;;115.20;48.08;;;;;;;-0.50;100.00;101309.13;5035412;28;20041;-89
2022/03/23 01:09:00;;;;;;;116.90;50.25;;;;;;;-0.48;100.00;101322.06;5035460;28;20055;-88
2022/03/23 01:11:45;;;;;;;114.32;49.80;;;;;;;-0.51;100.00;101320.25;5035269;28;20128;-89
2022/03/23 01:14:30;;;;;;;111.10;49.22;;;;;;;-0.55;100.00;101312.34;5036037;28;20053;-88
2022/03/23 01:17:14;;;;;;;105.82;47.75;;;;;;;-0.56;100.00;101314.00;5035363;28;20045;-88
2022/03/23 01:19:59;;;;;;;108.30;49.10;;;;;;;-0.60;100.00;101311.22;5035525;28;20045;-89
2022/03/23 01:22:44;;;;;;;111.55;51.50;;;;;;;-0.64;100.00;101312.81;5035375;28;20045;-87
2022/03/23 01:25:32;;;;;;;114.18;51.55;;;;;;;-0.71;100.00;101306.50;5030702;28;20048;-88
2022/03/23 01:28:17;;;;;;;104.25;48.88;;;;;;;-0.75;100.00;101307.19;5063649;28;20044;-89
2022/03/23 01:31:01;;;;;;;116.78;52.38;;;;;;;-0.78;100.00;101303.56;5080084;28;20326;-89
2022/03/23 01:33:46;;;;;;;113.20;50.15;;;;;;;-0.80;100.00;101307.78;5065451;28;20376;-89
2022/03/23 01:36:32;;;;;;;119.93;51.03;;;;;;;-0.86;100.00;101313.53;5065668;28;20048;-88
2022/03/23 01:39:17;;;;;;;103.55;48.15;;;;;;;-0.92;100.00;101302.09;5065999;28;20044;-88
2022/03/23 01:42:02;;;;;;;105.90;48.45;;;;;;;-1.00;100.00;101296.59;5080848;28;20048;-87
2022/03/23 01:44:47;;;;;;;110.28;47.05;;;;;;;-0.93;100.00;101308.06;5068731;28;20051;-86
2022/03/23 01:47:31;;;;;;;100.65;45.83;;;;;;;-0.96;100.00;101304.50;5087016;28;20037;-87
2022/03/23 01:50:25;;;;;;;97.80;42.28;;;;;;;-0.96;100.00;101303.63;5056400;23;20051;-88
2022/03/23 01:53:10;;;;;;;96.93;44.03;;;;;;;-1.01;100.00;101299.97;4981135;28;20053;-88
2022/03/23 01:55:56;;;;;;;98.20;43.60;;;;;;;-0.96;100.00;101291.66;4994332;28;20066;-89
2022/03/23 01:58:41;;;;;;;94.15;44.40;;;;;;;-0.84;100.00;101298.19;4980872;28;20038;-89
2022/03/23 02:01:28;;;;;;;95.30;43.17;;;;;;;-0.87;100.00;101285.19;4980204;28;20113;-89
2022/03/23 02:04:13;;;;;;;94.65;42.65;;;;;;;-0.90;100.00;101285.03;4980035;28;20042;-89
2022/03/23 02:06:58;;;;;;;76.15;38.42;;;;;;;-0.88;100.00;101286.84;4993836;28;20407;-90
2022/03/23 02:09:46;;;;;;;90.68;40.50;;;;;;;-1.05;100.00;101269.78;4979946;28;20046;-88
2022/03/23 02:12:34;;;;;;;90.65;40.85;;;;;;;-1.02;100.00;101273.38;4980668;28;20047;-88
2022/03/23 02:15:21;;;;;;;87.97;39.65;;;;;;;-0.91;100.00;101276.44;4980322;28;20047;-89
2022/03/23 02:18:06;;;;;;;94.43;42.22;;;;;;;-1.02;100.00;101269.91;4994228;28;20047;-88
2022/03/23 02:20:51;;;;;;;89.85;41.65;;;;;;;-0.98;100.00;101271.81;4980015;28;20051;-90
2022/03/23 02:23:36;;;;;;;89.95;41.75;;;;;;;-1.00;100.00;101266.63;4980263;28;20053;-89
2022/03/23 02:26:31;;;;;;;82.68;38.80;;;;;;;-1.07;100.00;101284.25;5033904;23;20057;-90
2022/03/23 02:29:34;;;;;;;86.38;40.90;;;;;;;-1.09;100.00;101278.19;5074231;23;20053;-87
2022/03/23 02:32:29;;;;;;;83.53;39.72;;;;;;;-1.26;100.00;101274.84;5014528;23;20046;-89
2022/03/23 02:35:19;;;;;;;78.07;37.10;;;;;;;-1.13;100.00;101276.28;5030397;23;20109;-90
2022/03/23 02:38:10;;;;;;;80.50;37.97;;;;;;;-1.09;100.00;101273.91;5001456;23;20104;-89
2022/03/23 02:41:14;;;;;;;80.50;36.10;;;;;;;-1.17;100.00;101262.38;5039584;23;20100;-88
2022/03/23 02:44:17;;;;;;;75.03;35.90;;;;;;;-1.13;100.00;101266.88;4995209;23;20062;-91
2022/03/23 02:47:03;;;;;;;77.85;33.75;;;;;;;-1.07;100.00;101268.81;4980137;28;20050;-90
2022/03/23 02:49:47;;;;;;;74.85;33.67;;;;;;;-1.15;100.00;101268.47;4980887;28;20038;-90
2022/03/23 02:52:33;;;;;;;73.40;33.55;;;;;;;-1.20;100.00;101273.44;4981693;28;20380;-90
2022/03/23 03:04:49;;;;;;;72.35;34.00;;;;;;;-1.51;100.00;101265.97;4992621;23;20052;-87
2022/03/23 03:20:20;;;;;;;73.35;34.30;;;;;;;-1.54;100.00;101280.38;5262421;23;20066;-86
2022/03/23 03:23:15;;;;;;;82.00;35.60;;;;;;;-1.52;100.00;101273.63;5131365;23;20110;-86
2022/03/23 03:29:29;;;;;;;88.05;36.45;;;;;;;-1.60;100.00;101273.25;5301700;23;20083;-86
2022/03/23 03:35:47;;;;;;;92.85;38.90;;;;;;;-1.72;100.00;101259.84;5072659;23;20056;-84
2022/03/23 03:38:33;;;;;;;89.50;41.60;;;;;;;-1.74;100.00;101264.03;4962731;28;20084;-85
2022/03/23 03:41:29;;;;;;;92.90;40.60;;;;;;;-1.79;100.00;101261.22;5217725;23;20036;-86
2022/03/23 03:44:17;;;;;;;92.00;40.45;;;;;;;-1.69;100.00;101260.88;5218461;23;20064;-87
2022/03/23 03:47:03;;;;;;;97.35;39.60;;;;;;;-1.75;100.00;101262.28;4943344;29;20038;-86
2022/03/23 03:50:01;;;;;;;91.90;38.17;;;;;;;-1.91;100.00;101237.53;5295134;23;20065;-87
2022/03/23 03:59:22;;;;;;;85.10;38.13;;;;;;;-1.83;100.00;101261.00;5828214;23;20064;-85
2022/03/23 04:05:28;;;;;;;79.47;34.60;;;;;;;-1.94;100.00;101250.22;5667949;23;20060;-85
2022/03/23 04:08:18;;;;;;;73.95;33.38;;;;;;;-1.93;100.00;101264.81;4910828;29;20028;-85
2022/03/23 04:35:41;;;;;;;70.28;30.60;;;;;;;-2.28;100.00;101242.56;5844017;23;20127;-84
2022/03/23 05:00:44;;;;;;;94.40;37.10;;;;;;;-2.38;100.00;101252.34;5694361;23;20045;-84
2022/03/23 05:12:17;;;;;;;97.65;39.97;;;;;;;-2.16;100.00;101267.16;5422376;23;20040;-85
2022/03/23 05:42:22;;;;;;;;;;;;;;;-1.58;100.00;101265.63;4968673;23;20060;-87
2022/03/23 05:45:13;;;;;;;83.55;36.95;;;;;;;-1.43;100.00;101249.25;4929666;23;19924;-88
2022/03/23 05:48:22;;;;;;;73.50;35.10;;;;;;;-0.31;100.00;101266.16;4873152;29;20068;-90
2022/03/23 05:51:07;;;;;;;77.22;34.08;;;;;;;0.68;100.00;101265.00;4868311;29;20079;-90
2022/03/23 05:53:51;;;;;;;78.15;35.80;;;;;;;1.52;100.00;101261.97;4868176;29;20045;-90
2022/03/23 05:56:36;;;;;;;89.57;39.63;;;;;;;2.24;100.00;101271.25;4881541;29;20056;-89
2022/03/23 05:59:20;;;;;;;77.65;37.90;;;;;;;3.15;100.00;101262.81;4865481;29;20049;-89
2022/03/23 06:02:05;;;;;;;82.40;40.28;;;;;;;3.79;97.07;101261.06;4881765;29;20049;-89
2022/03/23 06:04:49;;;;;;;107.38;47.00;;;;;;;4.36;92.59;101254.66;4868083;29;20366;-88
2022/03/23 06:07:34;;;;;;;200.77;80.20;;;;;;;4.75;85.09;101261.59;4876417;29;20053;-87
2022/03/23 06:10:18;;;;;;;172.77;70.15;;;;;;;5.37;80.80;101262.88;4868306;29;20053;-87
2022/03/23 06:13:04;;;;;;;157.93;72.47;;;;;;;5.95;80.13;101267.41;4867491;29;20063;-87
2022/03/23 06:15:49;;;;;;;149.95;75.55;;;;;;;6.43;77.85;101261.22;4870459;29;20148;-86
2022/03/23 06:18:34;;;;;;;201.90;104.70;;;;;;;7.06;72.82;101262.97;4870641;29;20049;-90
2022/03/23 06:21:18;;;;;;;172.73;90.95;;;;;;;7.54;69.83;101253.06;4863239;29;20423;-90
2022/03/23 06:24:03;;;;;;;171.73;88.68;;;;;;;7.89;68.52;101253.41;4871474;29;20374;-91
2022/03/23 06:26:47;;;;;;;160.15;85.47;;;;;;;8.55;65.83;101257.44;4885728;29;20124;-91
2022/03/23 06:29:32;;;;;;;160.82;85.38;;;;;;;9.10;63.17;101256.84;4871306;29;20104;-91
2022/03/23 06:32:17;;;;;;;160.05;89.05;;;;;;;9.65;60.78;101248.25;4871267;29;20352;-92
2022/03/23 06:35:03;;;;;;;169.02;94.22;;;;;;;10.04;58.50;101264.00;4869572;29;20053;-90
2022/03/23 06:37:47;;;;;;;196.75;106.78;;;;;;;10.34;58.83;101264.03;4869563;29;20376;-90
2022/03/23 06:40:32;;;;;;;167.32;92.30;;;;;;;10.82;55.95;101260.44;4869722;29;20048;-90
2022/03/23 06:43:16;;;;;;;140.27;78.28;;;;;;;11.08;55.26;101265.59;4869495;29;20057;-91
2022/03/23 06:46:00;;;;;;;115.55;64.95;;;;;;;11.38;53.48;101263.69;4869526;29;20113;-91
2022/03/23 06:48:47;;;;;;;113.47;62.55;;;;;;;11.43;51.75;101264.53;4869551;29;20049;-91
2022/03/23 06:51:32;;;;;;;104.40;60.10;;;;;;;12.49;50.33;101258.50;4855663;29;20121;-91
2022/03/23 06:54:17;;;;;;;109.05;65.13;;;;;;;12.70;46.34;101254.75;4884750;29;20055;-91
2022/03/23 06:57:02;;;;;;;114.05;65.65;;;;;;;13.37;47.09;101261.00;4870841;29;20045;-90
2022/03/23 06:59:46;;;;;;;103.28;61.00;;;;;;;13.55;45.20;101252.84;4870948;29;20045;-91
2022/03/23 07:02:30;;;;;;;111.53;65.40;;;;;;;14.17;44.62;101264.16;4871539;29;20108;-90
2022/03/23 07:05:17;;;;;;;127.57;71.57;;;;;;;14.56;43.09;101269.66;4871105;29;20052;-91
2022/03/23 07:11:05;;;;;;;162.13;93.13;;;;;;;14.93;41.86;101261.03;4884645;29;20084;-91
2022/03/23 07:13:50;;;;;;;114.10;70.05;;;;;;;15.29;41.24;101245.34;4884921;29;20045;-94
2022/03/23 07:16:34;;;;;;;114.35;70.68;;;;;;;15.63;41.80;101245.44;4884390;29;20041;-89
2022/03/23 07:19:19;;;;;;;114.60;72.60;;;;;;;15.84;40.65;101241.47;4870844;29;20075;-91
2022/03/23 07:22:03;;;;;;;123.63;75.18;;;;;;;16.16;40.55;101250.38;4883557;29;20075;-90
2022/03/23 07:24:48;;;;;;;118.63;75.90;;;;;;;16.51;39.84;101247.69;4883805;29;20431;-90
2022/03/23 07:27:33;;;;;;;104.60;64.60;;;;;;;16.31;37.58;101249.97;4883284;29;20064;-91
2022/03/23 07:30:18;;;;;;;110.07;68.68;;;;;;;16.44;36.35;101240.78;4870250;29;20059;-91
2022/03/23 07:33:03;;;;;;;96.25;61.97;;;;;;;16.59;37.40;101245.69;4883877;29;20052;-91
2022/03/23 07:35:48;;;;;;;113.35;66.13;;;;;;;16.96;36.79;101251.75;4870149;29;20057;-90
2022/03/23 07:38:32;;;;;;;95.82;59.00;;;;;;;17.07;34.97;101246.16;4869874;29;20124;-91
2022/03/23 07:41:17;;;;;;;80.68;49.03;;;;;;;17.24;34.08;101241.22;4869873;29;20045;-90
2022/03/23 07:44:01;;;;;;;90.85;55.20;;;;;;;17.40;34.25;101242.50;4869521;29;20053;-90
2022/03/23 07:46:46;;;;;;;90.13;59.60;;;;;;;17.73;34.25;101243.22;4881681;29;20051;-90
2022/03/23 07:49:30;;;;;;;91.43;59.80;;;;;;;17.95;34.42;101251.38;4860086;29;20351;-86
2022/03/23 07:52:15;;;;;;;94.32;58.60;;;;;;;17.83;33.54;101245.59;4866945;29;20048;-85
2022/03/23 07:55:00;;;;;;;85.47;55.38;;;;;;;17.85;33.34;101243.78;4867722;29;20041;-88
2022/03/23 07:57:45;;;;;;;95.18;58.28;;;;;;;17.96;33.28;101238.97;4867897;29;20507;-84
2022/03/23 08:00:29;;;;;;;102.40;62.20;;;;;;;18.18;33.26;101231.19;4868204;29;20041;-81
2022/03/23 08:03:14;;;;;;;104.70;64.47;;;;;;;18.28;33.37;101226.44;4867778;29;20049;-82
2022/03/23 08:05:58;;;;;;;101.97;64.93;;;;;;;18.61;33.51;101224.38;4881445;29;20461;-81
2022/03/23 08:08:43;;;;;;;106.97;64.25;;;;;;;18.55;32.77;101227.22;4867671;29;20045;-79
2022/03/23 08:11:28;;;;;;;104.05;66.65;;;;;;;18.53;33.12;101229.09;4880734;29;20045;-83
2022/03/23 08:14:12;;;;;;;109.32;65.65;;;;;;;18.70;32.71;101226.69;4867513;29;20053;-80
2022/03/23 08:16:56;;;;;;;101.38;65.78;;;;;;;18.76;32.47;101220.34;4868299;29;20052;-83
2022/03/23 08:19:41;;;;;;;101.63;65.18;;;;;;;18.71;32.74;101220.44;4869104;29;20423;-83
2022/03/23 08:22:25;;;;;;;105.57;66.60;;;;;;;18.85;32.52;101218.22;4869108;29;20065;-81
2022/03/23 08:25:09;;;;;;;93.07;63.13;;;;;;;18.96;32.83;101217.78;4868997;29;20383;-84
2022/03/23 08:27:55;;;;;;;104.68;63.20;;;;;;;18.55;33.77;101209.53;4869086;29;20045;-83
2022/03/23 08:30:41;;;;;;;100.10;65.63;;;;;;;19.04;33.32;101215.69;4882126;29;20045;-82
2022/03/23 08:33:26;;;;;;;104.97;65.63;;;;;;;18.79;33.51;101218.44;4853268;29;20182;-83
2022/03/23 08:36:11;;;;;;;120.35;78.05;;;;;;;19.19;32.58;101205.44;4867662;29;20387;-84
2022/03/23 08:38:55;;;;;;;103.47;70.25;;;;;;;18.83;31.68;101214.72;4881163;29;20041;-83
2022/03/23 08:41:40;;;;;;;81.78;53.35;;;;;;;19.03;32.43;101205.16;4882281;29;20044;-84
2022/03/23 08:44:25;;;;;;;72.60;45.97;;;;;;;19.40;32.01;101209.88;4855262;29;20061;-84
2022/03/23 08:47:09;;;;;;;92.18;57.28;;;;;;;19.26;31.78;101206.91;4868548;29;20045;-84
2022/03/23 08:49:55;;;;;;;73.38;49.58;;;;;;;19.47;32.39;101194.59;4881351;29;20053;-83
2022/03/23 08:52:41;;;;;;;80.70;51.80;;;;;;;19.75;32.56;101197.00;4867960;29;20048;-84
2022/03/23 08:55:28;;;;;;;77.25;51.70;;;;;;;19.81;31.96;101200.28;4868501;29;20137;-83
2022/03/23 08:58:12;;;;;;;80.28;52.97;;;;;;;19.64;31.98;101205.44;4882902;29;20045;-83
2022/03/23 09:00:57;;;;;;;79.93;50.05;;;;;;;19.73;32.22;101199.75;4868675;29;20068;-84
2022/03/23 09:03:43;;;;;;;87.20;54.15;;;;;;;19.95;31.84;101198.84;4868612;29;20055;-83
2022/03/23 09:06:27;;;;;;;80.88;50.25;;;;;;;19.98;32.22;101191.59;4868423;29;20091;-83
2022/03/23 09:09:11;;;;;;;79.05;50.65;;;;;;;20.16;31.38;101189.09;4868477;29;20049;-83
2022/03/23 09:11:55;;;;;;;82.05;51.33;;;;;;;20.18;31.48;101195.19;4882775;29;20049;-83
2022/03/23 09:14:40;;;;;;;72.53;49.65;;;;;;;20.26;31.07;101191.28;4882141;29;20052;-84
2022/03/23 09:17:26;;;;;;;74.72;51.30;;;;;;;20.14;30.72;101194.47;4868900;29;20104;-83
2022/03/23 09:20:12;;;;;;;71.20;47.42;;;;;;;20.32;31.12;101184.84;4881161;29;20113;-83
2022/03/23 09:22:58;;;;;;;61.92;43.08;;;;;;;20.46;30.22;101182.41;4868403;29;20124;-83
2022/03/23 09:25:43;;;;;;;63.17;42.53;;;;;;;20.49;30.21;101176.09;4869015;29;20115;-83
2022/03/23 09:28:27;;;;;;;65.05;41.80;;;;;;;20.70;29.88;101180.50;4855530;29;20049;-84
2022/03/23 09:31:12;;;;;;;53.83;36.90;;;;;;;20.89;29.06;101167.19;4882533;29;20053;-85
2022/03/23 09:33:56;;;;;;;56.40;39.72;;;;;;;21.07;28.24;101159.28;4881907;29;20061;-84
2022/03/23 09:39:44;;;;;;;58.78;38.90;;;;;;;21.54;28.71;101162.31;4882076;29;20069;-83
2022/03/23 09:42:30;;;;;;;56.75;35.75;;;;;;;21.67;28.83;101165.25;4868556;29;20105;-84
2022/03/23 09:45:27;;;;;;;62.90;37.92;;;;;;;21.72;28.69;101155.22;4849299;29;20053;-84
2022/03/23 09:48:14;;;;;;;51.63;34.08;;;;;;;21.61;27.78;101154.88;4848480;29;20050;-85
2022/03/23 09:50:59;;;;;;;45.05;30.67;;;;;;;21.86;27.29;101149.19;4852624;29;20053;-85
2022/03/23 09:53:44;;;;;;;41.25;27.75;;;;;;;21.16;26.28;101146.38;4867185;29;20344;-85
2022/03/23 09:56:29;;;;;;;37.92;27.08;;;;;;;21.74;24.59;101142.66;4853353;29;20060;-85
2022/03/23 09:59:13;;;;;;;37.60;25.90;;;;;;;22.13;25.31;101136.22;4852567;29;20118;-85
2022/03/23 10:02:00;;;;;;;38.78;27.98;;;;;;;22.31;25.77;101135.28;4852004;29;20064;-85
2022/03/23 10:04:54;;;;;;;40.58;26.05;;;;;;;22.55;25.85;101138.44;4866215;29;20042;-85
2022/03/23 10:08:08;;;;;;;41.38;29.10;;;;;;;22.26;26.00;101126.69;4825323;29;20057;-84
2022/03/23 10:11:43;;;;;;;61.95;38.70;;;;;;;22.52;24.37;101127.97;4866183;29;20041;-85
2022/03/23 10:14:59;;;;;;;34.58;25.23;;;;;;;22.61;24.10;101123.91;4866752;29;20440;-85
2022/03/23 10:17:53;;;;;;;42.05;28.05;;;;;;;22.86;24.54;101120.75;4852979;29;20052;-85
2022/03/23 10:20:38;;;;;;;43.10;29.90;;;;;;;23.10;25.15;101115.88;4866716;29;20193;-84
2022/03/23 10:23:23;;;;;;;45.72;29.38;;;;;;;23.19;25.10;101120.69;4852936;29;20102;-86
2022/03/23 10:26:12;;;;;;;44.00;29.17;;;;;;;23.15;24.55;101112.94;4866954;29;20053;-86
2022/03/23 10:28:57;;;;;;;37.00;26.30;;;;;;;23.12;24.10;101107.78;4852920;29;20049;-84
2022/03/23 10:31:41;;;;;;;43.38;28.63;;;;;;;23.05;24.31;101102.78;4853011;29;20136;-85
2022/03/23 10:34:39;;;;;;;39.65;26.73;;;;;;;23.19;25.14;101101.13;4853089;29;20049;-85
2022/03/23 10:37:31;;;;;;;36.47;24.38;;;;;;;23.48;24.02;101102.13;4853198;29;20045;-85
2022/03/23 10:40:18;;;;;;;36.95;24.30;;;;;;;23.57;22.94;101098.91;4866290;29;20363;-85
2022/03/23 10:43:02;;;;;;;35.15;21.25;;;;;;;23.77;23.02;101087.91;4866394;29;20073;-84
2022/03/23 10:45:47;;;;;;;31.08;20.70;;;;;;;23.66;22.74;101085.00;4866219;29;20110;-85
2022/03/23 10:48:31;;;;;;;31.00;20.20;;;;;;;24.02;22.22;101087.28;4853016;29;20045;-85
2022/03/23 10:51:26;;;;;;;27.60;19.25;;;;;;;24.01;21.50;101079.34;4852475;29;20052;-84
2022/03/23 10:54:23;;;;;;;24.02;16.15;;;;;;;24.18;21.39;101064.91;4852441;29;20375;-85
2022/03/23 10:57:08;;;;;;;23.52;15.98;;;;;;;24.42;22.00;101076.81;4866600;29;20495;-85
2022/03/23 10:59:53;;;;;;;23.50;14.90;;;;;;;24.55;20.99;101066.19;4865646;29;20048;-85
2022/03/23 11:02:47;;;;;;;22.23;15.90;;;;;;;24.49;20.79;101074.59;4852302;29;20049;-85
2022/03/23 11:05:37;;;;;;;26.90;18.60;;;;;;;24.72;20.62;101057.91;4865892;29;20056;-84
2022/03/23 11:08:23;;;;;;;15.60;10.77;;;;;;;24.61;18.43;101049.72;4866397;29;20057;-84
2022/03/23 11:17:28;;;;;;;14.40;10.82;;;;;;;24.77;19.06;101046.94;4865862;29;20045;-85
2022/03/23 11:20:12;;;;;;;12.05;9.90;;;;;;;24.80;18.98;101041.38;4865442;29;20113;-85
2022/03/23 11:23:00;;;;;;;15.13;9.48;;;;;;;24.94;18.36;101037.78;4851725;29;20045;-85
2022/03/23 11:25:46;;;;;;;13.68;10.30;;;;;;;24.88;18.09;101031.00;4865304;29;20464;-85
2022/03/23 11:28:34;;;;;;;14.07;9.73;;;;;;;24.77;17.05;101030.00;4851935;29;20117;-85
2022/03/23 11:31:18;;;;;;;13.35;9.45;;;;;;;24.73;16.84;101026.63;4864894;29;20045;-85
2022/03/23 11:34:03;;;;;;;16.50;11.52;;;;;;;24.64;18.08;101024.56;4851799;29;20070;-85
2022/03/23 11:36:52;;;;;;;16.13;11.13;;;;;;;24.83;18.04;101017.06;4852205;29;20053;-85
2022/03/23 11:39:36;;;;;;;11.85;9.77;;;;;;;24.34;17.61;101012.16;4865828;29;20053;-85
2022/03/23 11:42:22;;;;;;;15.20;8.82;;;;;;;24.63;17.55;101015.66;4851959;29;20052;-85
2022/03/23 11:45:07;;;;;;;12.38;9.40;;;;;;;24.76;17.52;101009.50;4851202;29;20447;-85
2022/03/23 11:48:00;;;;;;;15.30;11.25;;;;;;;24.90;18.36;101006.78;4851423;29;20086;-85
2022/03/23 11:51:10;;;;;;;16.02;11.82;;;;;;;24.78;17.80;101011.13;4851243;29;20054;-85
2022/03/23 11:57:53;;;;;;;18.40;12.35;;;;;;;24.71;17.00;100993.75;4863668;29;20057;-84
2022/03/23 12:00:40;;;;;;;14.05;11.02;;;;;;;24.79;17.10;100996.75;4851096;29;20121;-85
2022/03/23 12:03:43;;;;;;;16.23;11.68;;;;;;;24.85;18.25;100987.47;4852020;29;20049;-85
2022/03/23 12:06:42;;;;;;;18.13;12.10;;;;;;;24.83;18.71;100986.69;4851325;29;20049;-85
2022/03/23 12:09:44;;;;;;;12.73;10.07;;;;;;;24.90;17.05;100980.00;4850918;29;20087;-86
2022/03/23 12:12:39;;;;;;;13.43;9.60;;;;;;;24.77;17.84;100971.91;4850736;29;20351;-85
2022/03/23 12:15:28;;;;;;;7.72;6.55;;;;;;;24.73;16.68;100973.06;4852404;29;20053;-85
2022/03/23 12:18:14;;;;;;;7.55;6.30;;;;;;;24.78;16.90;100962.06;4865922;29;20050;-84
2022/03/23 12:20:59;;;;;;;9.43;6.70;;;;;;;24.84;15.82;100957.16;4851801;29;20499;-84
2022/03/23 12:23:53;;;;;;;6.20;4.85;;;;;;;24.80;16.00;100961.00;4851759;29;20056;-85
2022/03/23 12:26:43;;;;;;;6.50;4.20;;;;;;;24.75;15.11;100949.72;4864929;29;20052;-85
2022/03/23 12:29:35;;;;;;;5.30;4.78;;;;;;;24.87;14.89;100948.06;4864087;29;20041;-84
2022/03/23 12:32:20;;;;;;;5.57;3.80;;;;;;;24.62;14.89;100941.63;4848820;29;20045;-83
2022/03/23 12:35:06;;;;;;;7.75;3.88;;;;;;;24.91;15.49;100941.53;4862733;29;20042;-83
2022/03/23 12:37:50;;;;;;;5.10;3.70;;;;;;;24.95;15.29;100940.34;4861836;29;20120;-83
2022/03/23 12:40:41;;;;;;;5.07;4.22;;;;;;;24.72;14.95;100925.81;4848845;29;20056;-83
2022/03/23 12:43:42;;;;;;;6.10;4.55;;;;;;;24.81;15.44;100930.56;4862187;29;20061;-84
2022/03/23 12:46:26;;;;;;;8.95;4.10;;;;;;;24.62;15.07;100925.56;4862314;29;20101;-83
2022/03/23 12:58:28;;;;;;;5.72;4.82;;;;;;;24.43;16.02;100914.34;4864260;29;20049;-84
2022/03/23 13:01:21;;;;;;;8.88;4.43;;;;;;;24.27;15.00;100912.63;4863830;29;20360;-84
2022/03/23 13:04:05;;;;;;;6.30;4.47;;;;;;;24.31;15.10;100907.97;4850782;29;20093;-84
2022/03/23 13:06:49;;;;;;;7.20;3.85;;;;;;;24.35;15.25;100905.94;4863916;29;20053;-84
2022/03/23 13:09:35;;;;;;;5.45;4.15;;;;;;;24.37;14.70;100909.38;4864101;29;20049;-84
2022/03/23 13:12:25;;;;;;;5.90;4.47;;;;;;;24.25;15.15;100909.22;4863145;29;20116;-84
2022/03/23 13:15:13;;;;;;;7.70;4.68;;;;;;;24.13;15.18;100893.09;4863080;29;20049;-84
2022/03/23 13:17:58;;;;;;;6.70;4.97;;;;;;;24.15;16.17;100897.41;4850169;29;20042;-84
2022/03/23 13:20:51;;;;;;;7.47;5.78;;;;;;;24.02;15.86;100900.00;4863724;29;20407;-84
2022/03/23 13:23:35;;;;;;;7.80;5.65;;;;;;;23.84;15.43;100893.13;4836796;29;20050;-84
2022/03/23 13:26:22;;;;;;;9.52;6.32;;;;;;;23.87;15.49;100897.44;4849780;29;20056;-84
2022/03/23 13:29:11;;;;;;;7.25;5.63;;;;;;;23.84;16.48;100890.47;4850082;29;20053;-83
2022/03/23 13:32:03;;;;;;;9.55;5.72;;;;;;;23.82;15.04;100887.00;4863653;29;20077;-84
2022/03/23 13:34:57;;;;;;;8.85;6.45;;;;;;;23.54;15.98;100880.72;4863605;29;20052;-84
2022/03/23 13:38:03;;;;;;;10.70;7.43;;;;;;;23.45;15.61;100872.41;4837017;29;20336;-84
2022/03/23 13:43:52;;;;;;;8.48;6.65;;;;;;;23.59;16.84;100860.84;4863695;29;20054;-84
2022/03/23 13:46:36;;;;;;;12.25;7.93;;;;;;;23.15;15.98;100859.13;4863442;29;20125;-84
2022/03/23 13:49:21;;;;;;;9.32;6.45;;;;;;;23.21;16.13;100856.94;4849972;29;20056;-84
2022/03/23 13:52:05;;;;;;;12.35;8.38;;;;;;;23.14;16.62;100857.38;4850159;29;20053;-84
2022/03/23 13:54:53;;;;;;;19.23;12.02;;;;;;;23.08;16.43;100854.16;4849677;29;20041;-84
2022/03/23 13:57:37;;;;;;;11.48;7.65;;;;;;;23.27;17.05;100853.03;4862800;29;20050;-83
2022/03/23 14:00:26;;;;;;;13.80;8.65;;;;;;;23.12;16.85;100851.28;4863773;29;20121;-84
2022/03/23 14:03:14;;;;;;;10.57;7.28;;;;;;;23.16;17.07;100852.81;4862900;29;20420;-84
2022/03/23 14:06:03;;;;;;;14.82;9.23;;;;;;;23.01;16.83;100841.22;4863030;29;20041;-84
2022/03/23 14:08:54;;;;;;;10.32;7.70;;;;;;;22.92;17.08;100842.63;4864039;29;20128;-84
2022/03/23 14:12:01;;;;;;;9.83;7.13;;;;;;;22.68;17.50;100838.75;4863112;29;20097;-83
2022/03/23 14:14:45;;;;;;;11.30;8.00;;;;;;;22.47;17.13;100841.75;4858720;29;20443;-83
2022/03/23 14:17:34;;;;;;;11.32;8.15;;;;;;;22.37;17.47;100833.41;4848961;29;20359;-83
2022/03/23 14:20:22;;;;;;;15.90;9.82;;;;;;;22.32;17.01;100821.28;4849831;29;20049;-84
2022/03/23 14:23:07;;;;;;;14.55;10.27;;;;;;;22.43;17.61;100824.19;4837024;29;20045;-83
2022/03/23 14:25:51;;;;;;;11.73;8.40;;;;;;;22.52;18.05;100814.75;4862468;29;20041;-83
2022/03/23 14:28:45;;;;;;;19.13;13.52;;;;;;;22.36;17.24;100818.34;4849435;29;20077;-83
2022/03/23 14:31:29;;;;;;;10.88;8.38;;;;;;;22.33;17.24;100812.34;4862947;29;20124;-83
2022/03/23 14:34:14;;;;;;;9.10;7.60;;;;;;;22.10;17.55;100813.63;4862273;29;20050;-83
2022/03/23 14:37:09;;;;;;;9.85;7.05;;;;;;;21.90;17.43;100812.97;4852083;29;20068;-84
2022/03/23 14:39:54;;;;;;;8.43;6.85;;;;;;;22.00;17.95;100807.06;4852711;29;20054;-83
2022/03/23 14:42:38;;;;;;;13.10;8.07;;;;;;;22.01;17.80;100806.16;4865270;29;20461;-83
2022/03/23 14:45:43;;;;;;;11.52;7.53;;;;;;;22.03;18.38;100798.91;4866113;29;20056;-84
2022/03/23 14:48:35;;;;;;;15.52;7.90;;;;;;;21.73;18.08;100798.84;4852777;29;20339;-83
2022/03/23 14:51:21;;;;;;;;;;;;;;;21.54;17.96;100793.66;4853161;29;20050;-83
2022/03/23 14:54:10;;;;;;;8.75;6.53;;;;;;;21.49;18.30;100788.59;4852635;29;19924;-84
2022/03/23 14:56:55;;;;;;;10.43;6.47;;;;;;;21.43;18.01;100781.78;4865824;29;20320;-83
2022/03/23 14:59:43;;;;;;;8.52;6.78;;;;;;;21.29;18.00;100784.34;4839054;29;20066;-83
2022/03/23 15:02:29;;;;;;;12.45;6.13;;;;;;;21.32;18.17;100775.28;4866189;29;20045;-84
2022/03/23 15:14:23;;;;;;;13.38;7.22;;;;;;;20.99;18.48;100758.41;4864011;29;20049;-82
2022/03/23 15:17:07;;;;;;;9.93;6.18;;;;;;;20.89;18.60;100757.16;4850683;29;20045;-82
2022/03/23 15:19:52;;;;;;;7.88;5.38;;;;;;;20.83;18.74;100764.59;4863719;29;20053;-83
2022/03/23 15:22:38;;;;;;;9.18;5.90;;;;;;;20.72;19.22;100752.72;4863595;29;20367;-82